createdAt,value
2022-11-12T00:01:47.570Z,17.20
2022-11-12T00:03:37.791Z,31.55
2022-11-12T00:05:28.613Z,24.98
2022-11-12T00:07:18.879Z,20.63
2022-11-12T00:09:08.993Z,25.40
2022-11-12T00:10:58.950Z,21.92
2022-11-12T00:12:49.434Z,22.85
2022-11-12T00:14:39.251Z,20.40
2022-11-12T00:16:29.011Z,19.33
2022-11-12T00:18:18.939Z,18.15
2022-11-12T00:20:09.187Z,19.05
2022-11-12T00:21:59.413Z,16.48
2022-11-12T00:23:49.738Z,19.77
2022-11-12T00:25:40.207Z,19.60
2022-11-12T00:27:32.869Z,16.63
2022-11-12T00:29:22.972Z,14.27
2022-11-12T00:31:13.420Z,13.95
2022-11-12T00:33:05.061Z,15.27
2022-11-12T00:34:55.155Z,16.55
2022-11-12T00:36:45.402Z,14.77
2022-11-12T00:38:35.428Z,13.07
2022-11-12T00:40:25.697Z,13.40
2022-11-12T00:42:15.889Z,12.07
2022-11-12T00:44:06.118Z,15.10
2022-11-12T00:45:56.300Z,13.93
2022-11-12T00:47:46.350Z,16.98
2022-11-12T00:49:36.524Z,14.85
2022-11-12T00:51:26.362Z,14.77
2022-11-12T00:53:16.761Z,12.80
2022-11-12T00:55:07.345Z,14.43
2022-11-12T00:56:57.288Z,12.57
2022-11-12T00:58:47.327Z,13.52
2022-11-12T01:00:37.413Z,11.25
2022-11-12T01:02:27.378Z,14.50
2022-11-12T01:04:17.184Z,14.75
2022-11-12T01:06:20.049Z,14.65
2022-11-12T01:08:10.198Z,12.95
2022-11-12T01:10:00.171Z,14.90
2022-11-12T01:11:50.488Z,15.02
2022-11-12T01:13:44.311Z,13.77
2022-11-12T01:15:34.418Z,13.55
2022-11-12T01:17:24.618Z,12.18
2022-11-12T01:19:14.990Z,11.43
2022-11-12T01:21:07.190Z,12.10
2022-11-12T01:22:57.359Z,13.80
2022-11-12T01:24:47.574Z,11.80
2022-11-12T01:26:37.986Z,10.88
2022-11-12T01:28:29.339Z,12.52
2022-11-12T01:30:19.577Z,11.23
2022-11-12T01:32:09.768Z,14.07
2022-11-12T01:34:10.058Z,13.13
2022-11-12T01:36:00.118Z,11.68
2022-11-12T01:37:50.090Z,13.32
2022-11-12T01:39:40.572Z,15.25
2022-11-12T01:41:33.242Z,12.02
2022-11-12T01:43:23.210Z,16.13
2022-11-12T01:45:17.919Z,11.90
2022-11-12T01:47:14.502Z,12.68
2022-11-12T01:49:09.830Z,13.00
2022-11-12T01:51:02.253Z,14.43
2022-11-12T01:53:06.221Z,13.00
2022-11-12T01:55:02.951Z,12.50
2022-11-12T01:56:56.408Z,14.35
2022-11-12T01:58:48.986Z,15.77
2022-11-12T02:00:41.065Z,16.13
2022-11-12T02:02:32.660Z,17.92
2022-11-12T02:04:23.007Z,16.40
2022-11-12T02:06:15.579Z,20.33
2022-11-12T02:08:07.993Z,21.40
2022-11-12T02:10:01.134Z,17.45
2022-11-12T02:11:51.346Z,44.80
2022-11-12T02:14:04.987Z,16.42
2022-11-12T02:15:55.819Z,21.60
2022-11-12T02:17:46.252Z,16.25
2022-11-12T02:19:39.665Z,18.90
2022-11-12T02:21:30.303Z,15.15
2022-11-12T02:23:20.566Z,17.48
2022-11-12T02:25:22.302Z,15.95
2022-11-12T02:27:12.686Z,18.77
2022-11-12T02:29:03.199Z,13.23
2022-11-12T02:30:53.614Z,14.95
2022-11-12T02:32:44.006Z,13.15
2022-11-12T02:34:34.196Z,15.85
2022-11-12T02:36:24.618Z,17.02
2022-11-12T02:38:15.031Z,18.15
2022-11-12T02:40:06.090Z,16.02
2022-11-12T02:41:56.111Z,22.67
2022-11-12T02:43:46.782Z,18.23
2022-11-12T02:45:36.783Z,17.63
2022-11-12T02:47:27.196Z,16.20
2022-11-12T02:49:17.388Z,21.63
2022-11-12T02:51:08.240Z,17.30
2022-11-12T02:52:58.640Z,14.45
2022-11-12T02:54:48.718Z,15.25
2022-11-12T02:56:38.944Z,19.58
2022-11-12T02:58:29.643Z,18.60
2022-11-12T03:00:19.842Z,21.73
2022-11-12T03:02:10.289Z,18.08
2022-11-12T03:04:00.468Z,15.15
2022-11-12T03:05:59.276Z,16.30
2022-11-12T03:07:49.299Z,12.25
2022-11-12T03:09:39.413Z,13.32
2022-11-12T03:11:29.528Z,12.85
2022-11-12T03:13:20.811Z,9.75
2022-11-12T03:15:11.080Z,12.88
2022-11-12T03:17:01.368Z,10.70
2022-11-12T03:18:51.672Z,15.13
2022-11-12T03:20:42.073Z,10.70
2022-11-12T03:22:32.388Z,10.52
2022-11-12T03:24:22.648Z,11.27
2022-11-12T03:26:12.836Z,11.18
2022-11-12T03:28:14.860Z,14.10
2022-11-12T03:30:05.440Z,12.68
2022-11-12T03:31:55.684Z,11.43
2022-11-12T03:33:46.102Z,11.45
2022-11-12T03:35:36.973Z,10.40
2022-11-12T03:37:26.958Z,11.43
2022-11-12T03:39:17.002Z,8.90
2022-11-12T03:41:07.151Z,9.43
2022-11-12T03:42:57.780Z,10.95
2022-11-12T03:44:48.044Z,12.45
2022-11-12T03:46:43.047Z,11.20
2022-11-12T03:48:34.189Z,15.23
2022-11-12T03:50:26.994Z,15.18
2022-11-12T03:52:16.953Z,10.48
2022-11-12T03:54:07.399Z,11.05
2022-11-12T03:55:57.588Z,10.82
2022-11-12T03:57:49.393Z,10.43
2022-11-12T03:59:39.535Z,10.48
2022-11-12T04:01:29.697Z,8.27
2022-11-12T04:03:19.817Z,8.00
2022-11-12T04:05:28.496Z,9.35
2022-11-12T04:07:40.064Z,11.68
2022-11-12T04:09:30.280Z,9.18
2022-11-12T04:11:21.123Z,10.38
2022-11-12T04:13:29.451Z,9.38
2022-11-12T04:15:19.425Z,9.43
2022-11-12T04:17:28.150Z,9.32
2022-11-12T04:19:36.944Z,13.48
2022-11-12T04:21:56.303Z,9.98
2022-11-12T04:23:46.832Z,10.65
2022-11-12T04:25:55.483Z,10.52
2022-11-12T04:27:45.595Z,9.93
2022-11-12T04:30:01.826Z,8.93
2022-11-12T04:31:51.771Z,8.98
2022-11-12T04:33:41.900Z,12.15
2022-11-12T04:35:32.149Z,11.60
2022-11-12T04:37:24.094Z,12.07
2022-11-12T04:39:13.900Z,12.13
2022-11-12T04:41:22.642Z,12.27
2022-11-12T04:43:34.796Z,11.48
2022-11-12T04:45:25.186Z,14.35
2022-11-12T04:47:15.204Z,10.50
2022-11-12T04:49:05.383Z,11.13
2022-11-12T04:51:24.282Z,11.90
2022-11-12T04:53:14.664Z,15.20
2022-11-12T04:55:05.167Z,17.65
2022-11-12T04:56:55.407Z,15.80
2022-11-12T04:58:45.775Z,15.27
2022-11-12T05:00:35.913Z,11.27
2022-11-12T05:02:26.755Z,17.58
2022-11-12T05:04:16.822Z,15.18
2022-11-12T05:06:30.352Z,13.52
2022-11-12T05:08:20.551Z,17.13
2022-11-12T05:10:11.175Z,14.55
2022-11-12T05:12:01.571Z,10.93
2022-11-12T05:13:51.468Z,10.90
2022-11-12T05:15:44.121Z,12.30
2022-11-12T05:17:34.005Z,12.95
2022-11-12T05:19:24.607Z,12.20
2022-11-12T05:21:33.203Z,11.38
2022-11-12T05:23:23.417Z,9.98
2022-11-12T05:25:13.827Z,11.23
2022-11-12T05:27:06.906Z,15.23
2022-11-12T05:28:56.825Z,13.95
2022-11-12T05:30:48.335Z,17.02
2022-11-12T05:32:38.094Z,10.27
2022-11-12T05:34:28.313Z,15.48
2022-11-12T05:36:18.577Z,11.27
2022-11-12T05:38:08.820Z,11.38
2022-11-12T05:39:59.071Z,11.02
2022-11-12T05:42:11.381Z,10.43
2022-11-12T05:43:59.967Z,12.32
2022-11-12T05:45:50.272Z,12.70
2022-11-12T05:47:40.456Z,11.57
2022-11-12T05:49:30.758Z,12.27
2022-11-12T05:51:21.076Z,11.30
2022-11-12T05:53:11.240Z,13.20
2022-11-12T05:55:01.315Z,15.20
2022-11-12T05:56:53.544Z,13.70
2022-11-12T05:58:43.607Z,10.85
2022-11-12T06:00:39.100Z,13.38
2022-11-12T06:02:29.352Z,12.32
2022-11-12T06:04:19.570Z,11.00
2022-11-12T06:06:09.843Z,13.10
2022-11-12T06:08:00.490Z,13.15
2022-11-12T06:09:50.296Z,12.55
2022-11-12T06:11:40.217Z,12.30
2022-11-12T06:13:30.643Z,11.43
2022-11-12T06:15:21.161Z,16.73
2022-11-12T06:17:11.556Z,10.27
2022-11-12T06:19:01.469Z,11.50
2022-11-12T06:21:10.415Z,12.32
2022-11-12T06:23:00.668Z,10.82
2022-11-12T06:24:50.948Z,11.23
2022-11-12T06:26:41.087Z,13.25
2022-11-12T06:28:31.551Z,12.07
2022-11-12T06:30:25.660Z,13.50
2022-11-12T06:32:16.293Z,26.27
2022-11-12T06:34:07.063Z,10.48
2022-11-12T06:36:03.053Z,10.48
2022-11-12T06:37:53.955Z,11.60
2022-11-12T06:39:44.222Z,12.45
2022-11-12T06:41:34.416Z,10.80
2022-11-12T06:43:25.836Z,13.90
2022-11-12T06:45:15.784Z,10.25
2022-11-12T06:47:06.074Z,8.93
2022-11-12T06:48:56.274Z,12.52
2022-11-12T06:50:46.162Z,10.63
2022-11-12T06:52:36.584Z,11.60
2022-11-12T06:54:26.724Z,16.52
2022-11-12T06:56:17.062Z,10.13
2022-11-12T06:58:07.266Z,9.25
2022-11-12T06:59:57.622Z,12.45
2022-11-12T07:01:47.553Z,11.95
2022-11-12T07:03:38.658Z,11.60
2022-11-12T07:05:28.914Z,11.57
2022-11-12T07:07:19.419Z,11.27
2022-11-12T07:09:09.929Z,14.80
2022-11-12T07:11:00.566Z,13.15
2022-11-12T07:12:54.125Z,16.50
2022-11-12T07:14:44.033Z,13.02
2022-11-12T07:16:34.949Z,9.57
2022-11-12T07:18:25.534Z,9.57
2022-11-12T07:20:16.098Z,13.02
2022-11-12T07:22:06.174Z,8.68
2022-11-12T07:23:56.558Z,7.72
2022-11-12T07:25:46.882Z,7.90
2022-11-12T07:27:36.937Z,12.95
2022-11-12T07:29:46.472Z,11.88
2022-11-12T07:31:37.534Z,18.70
2022-11-12T07:33:28.181Z,12.52
2022-11-12T07:35:18.221Z,13.07
2022-11-12T07:37:08.433Z,7.03
2022-11-12T07:38:58.588Z,7.00
2022-11-12T07:40:48.882Z,10.80
2022-11-12T07:42:39.124Z,6.53
2022-11-12T07:44:29.449Z,6.68
2022-11-12T07:46:25.299Z,5.88
2022-11-12T07:48:15.463Z,5.95
2022-11-12T07:50:06.186Z,4.85
2022-11-12T07:51:56.114Z,6.47
2022-11-12T07:53:47.482Z,6.03
2022-11-12T07:55:37.478Z,5.55
2022-11-12T07:57:27.762Z,7.22
2022-11-12T07:59:18.039Z,6.32
2022-11-12T08:01:20.895Z,6.70
2022-11-12T08:03:11.242Z,6.38
2022-11-12T08:05:01.532Z,6.43
2022-11-12T08:06:51.972Z,6.53
2022-11-12T08:08:41.994Z,6.40
2022-11-12T08:10:32.333Z,7.32
2022-11-12T08:12:22.502Z,7.32
2022-11-12T08:14:13.041Z,5.57
2022-11-12T08:16:03.624Z,7.60
2022-11-12T08:17:53.650Z,6.40
2022-11-12T08:19:43.870Z,10.43
2022-11-12T08:21:33.868Z,7.10
2022-11-12T08:23:24.138Z,5.90
2022-11-12T08:25:15.307Z,8.07
2022-11-12T08:27:05.344Z,7.88
2022-11-12T08:28:55.624Z,7.57
2022-11-12T08:30:45.745Z,6.32
2022-11-12T08:32:35.966Z,6.53
2022-11-12T08:34:26.042Z,5.30
2022-11-12T08:36:17.361Z,6.15
2022-11-12T08:38:09.299Z,7.28
2022-11-12T08:39:59.237Z,10.45
2022-11-12T08:41:49.189Z,8.75
2022-11-12T08:43:41.052Z,10.68
2022-11-12T08:45:37.424Z,10.57
2022-11-12T08:47:27.444Z,8.85
2022-11-12T08:49:17.779Z,13.50
2022-11-12T08:51:08.386Z,19.20
2022-11-12T08:53:02.028Z,19.50
2022-11-12T08:54:52.015Z,10.13
2022-11-12T08:56:42.424Z,7.63
2022-11-12T08:58:32.659Z,9.02
2022-11-12T09:00:23.010Z,8.45
2022-11-12T09:02:13.967Z,10.77
2022-11-12T09:04:04.645Z,8.13
2022-11-12T09:05:54.864Z,11.60
2022-11-12T09:07:52.033Z,16.23
2022-11-12T09:09:42.389Z,13.05
2022-11-12T09:11:32.255Z,8.73
2022-11-12T09:13:25.781Z,10.40
2022-11-12T09:15:36.138Z,10.07
2022-11-12T09:17:29.114Z,7.20
2022-11-12T09:19:19.022Z,8.90
2022-11-12T09:21:12.268Z,7.72
2022-11-12T09:23:11.543Z,7.63
2022-11-12T09:25:01.569Z,11.00
2022-11-12T09:26:55.376Z,7.68
2022-11-12T09:28:45.759Z,7.30
2022-11-12T09:30:37.828Z,6.80
2022-11-12T09:32:27.765Z,7.07
2022-11-12T09:34:18.144Z,6.38
2022-11-12T09:36:08.528Z,7.78
2022-11-12T09:37:59.658Z,7.63
2022-11-12T09:39:49.672Z,7.82
2022-11-12T09:41:41.956Z,7.50
2022-11-12T09:43:37.344Z,7.13
2022-11-12T09:45:32.603Z,6.40
2022-11-12T09:47:34.783Z,6.78
2022-11-12T09:49:48.970Z,7.20
2022-11-12T09:52:16.474Z,7.22
2022-11-12T09:54:28.799Z,7.93
2022-11-12T09:56:21.762Z,7.60
2022-11-12T09:58:17.371Z,7.38
2022-11-12T10:00:17.840Z,6.72
2022-11-12T10:02:39.112Z,7.32
2022-11-12T10:04:40.787Z,6.07
2022-11-12T10:07:04.167Z,5.90
2022-11-12T10:09:18.069Z,7.60
2022-11-12T10:11:58.795Z,10.25
2022-11-12T10:14:19.504Z,19.95
2022-11-12T10:16:42.858Z,12.80
2022-11-12T10:18:46.535Z,8.65
2022-11-12T10:21:12.754Z,8.88
2022-11-12T10:23:05.676Z,8.13
2022-11-12T10:24:56.794Z,7.20
2022-11-12T10:26:48.470Z,9.25
2022-11-12T10:28:45.785Z,10.43
2022-11-12T10:30:36.527Z,11.05
2022-11-12T10:32:29.662Z,11.35
2022-11-12T10:34:22.562Z,10.73
2022-11-12T10:36:17.144Z,11.65
2022-11-12T10:38:15.105Z,9.02
2022-11-12T10:40:28.739Z,10.30
2022-11-12T10:42:21.317Z,11.45
2022-11-12T10:44:15.024Z,9.30
2022-11-12T10:46:21.444Z,11.02
2022-11-12T10:48:27.055Z,8.70
2022-11-12T10:50:17.719Z,8.13
2022-11-12T10:52:21.471Z,9.77
2022-11-12T10:54:27.080Z,8.88
2022-11-12T10:56:31.561Z,6.90
2022-11-12T10:58:22.390Z,6.72
2022-11-12T11:00:12.470Z,8.10
2022-11-12T11:02:02.924Z,8.43
2022-11-12T11:03:57.891Z,5.97
2022-11-12T11:06:00.223Z,6.72
2022-11-12T11:07:50.680Z,6.97
2022-11-12T11:09:53.441Z,5.97
2022-11-12T11:11:52.343Z,8.32
2022-11-12T11:13:43.328Z,7.22
2022-11-12T11:15:33.548Z,11.40
2022-11-12T11:17:24.030Z,8.23
2022-11-12T11:19:17.306Z,8.00
2022-11-12T11:21:28.414Z,8.00
2022-11-12T11:23:45.292Z,7.10
2022-11-12T11:25:37.109Z,7.00
2022-11-12T11:28:02.618Z,11.35
2022-11-12T11:30:09.895Z,7.68
2022-11-12T11:32:12.553Z,7.57
2022-11-12T11:34:17.927Z,7.63
2022-11-12T11:36:27.577Z,8.00
2022-11-12T11:38:42.704Z,7.47
2022-11-12T11:40:55.668Z,9.20
2022-11-12T11:43:05.157Z,7.22
2022-11-12T11:45:13.763Z,8.05
2022-11-12T11:47:18.153Z,7.90
2022-11-12T11:49:16.968Z,8.02
2022-11-12T11:51:28.435Z,8.43
2022-11-12T11:53:18.444Z,9.32
2022-11-12T11:55:20.501Z,10.35
2022-11-12T11:57:27.526Z,10.60
2022-11-12T11:59:20.262Z,8.80
2022-11-12T12:01:36.450Z,8.43
2022-11-12T12:03:41.688Z,7.50
2022-11-12T12:05:40.731Z,7.97
2022-11-12T12:08:08.810Z,7.93
2022-11-12T12:10:17.177Z,9.00
2022-11-12T12:12:24.562Z,8.10
2022-11-12T12:14:36.548Z,8.07
2022-11-12T12:16:40.316Z,8.85
2022-11-12T12:18:49.157Z,7.38
2022-11-12T12:20:45.531Z,7.65
2022-11-12T12:23:19.271Z,6.88
2022-11-12T12:25:18.306Z,7.47
2022-11-12T12:27:14.875Z,7.35
2022-11-12T12:29:12.191Z,8.38
2022-11-12T12:31:13.832Z,6.53
2022-11-12T12:33:17.126Z,8.00
2022-11-12T12:35:25.515Z,6.65
2022-11-12T12:37:37.238Z,8.45
2022-11-12T12:39:37.796Z,7.45
2022-11-12T12:41:40.905Z,7.20
2022-11-12T12:43:33.910Z,7.18
2022-11-12T12:45:35.935Z,6.75
2022-11-12T12:47:41.683Z,6.90
2022-11-12T12:49:36.935Z,35.92
2022-11-12T12:51:30.904Z,88.35
2022-11-12T12:53:27.251Z,41.10
2022-11-12T12:55:35.537Z,10.20
2022-11-12T12:57:45.888Z,7.35
2022-11-12T12:59:36.150Z,9.77
2022-11-12T13:01:35.632Z,9.77
2022-11-12T13:03:44.329Z,10.40
2022-11-12T13:05:36.856Z,7.60
2022-11-12T13:07:41.850Z,8.30
2022-11-12T13:09:33.233Z,8.13
2022-11-12T13:12:00.668Z,7.57
2022-11-12T13:13:50.917Z,6.35
2022-11-12T13:15:49.216Z,9.60
2022-11-12T13:17:45.262Z,8.90
2022-11-12T13:19:58.346Z,7.28
2022-11-12T13:22:17.165Z,7.72
2022-11-12T13:24:12.072Z,7.53
2022-11-12T13:26:39.275Z,8.40
2022-11-12T13:28:29.847Z,8.02
2022-11-12T13:30:23.115Z,10.30
2022-11-12T13:32:28.149Z,8.02
2022-11-12T13:34:26.887Z,8.55
2022-11-12T13:36:29.159Z,7.05
2022-11-12T13:38:20.176Z,7.35
2022-11-12T13:40:30.517Z,9.10
2022-11-12T13:42:40.841Z,7.70
2022-11-12T13:44:31.430Z,7.72
2022-11-12T13:46:33.146Z,9.52
2022-11-12T13:48:29.724Z,8.88
2022-11-12T13:50:22.233Z,6.43
2022-11-12T13:52:16.135Z,7.95
2022-11-12T13:54:26.031Z,7.85
2022-11-12T13:56:34.110Z,6.88
2022-11-12T13:58:32.163Z,7.38
2022-11-12T14:00:27.893Z,7.30
2022-11-12T14:02:25.046Z,7.90
2022-11-12T14:04:25.321Z,8.88
2022-11-12T14:06:19.439Z,8.88
2022-11-12T14:08:36.155Z,8.68
2022-11-12T14:10:35.726Z,6.85
2022-11-12T14:12:41.772Z,7.57
2022-11-12T14:15:03.094Z,10.30
2022-11-12T14:17:24.620Z,7.47
2022-11-12T14:19:14.810Z,7.63
2022-11-12T14:21:26.117Z,6.65
2022-11-12T14:23:24.793Z,6.88
2022-11-12T14:25:19.983Z,5.78
2022-11-12T14:27:28.543Z,6.80
2022-11-12T14:29:19.418Z,6.50
2022-11-12T14:31:15.727Z,6.97
2022-11-12T14:33:10.982Z,6.20
2022-11-12T14:35:00.988Z,7.78
2022-11-12T14:36:52.715Z,7.35
2022-11-12T14:38:48.244Z,6.72
2022-11-12T14:40:47.131Z,7.78
2022-11-12T14:42:37.375Z,8.50
2022-11-12T14:44:38.417Z,8.00
2022-11-12T14:46:39.562Z,8.38
2022-11-12T14:48:37.009Z,7.25
2022-11-12T14:50:37.488Z,6.97
2022-11-12T14:52:34.787Z,7.35
2022-11-12T14:54:42.387Z,6.30
2022-11-12T14:56:47.537Z,7.13
2022-11-12T14:58:39.910Z,7.13
2022-11-12T15:00:30.171Z,7.85
2022-11-12T15:02:42.289Z,6.70
2022-11-12T15:04:44.773Z,6.82
2022-11-12T15:06:35.145Z,8.25
2022-11-12T15:08:34.492Z,8.20
2022-11-12T15:10:34.734Z,8.80
2022-11-12T15:12:34.197Z,11.15
2022-11-12T15:14:25.491Z,8.90
2022-11-12T15:16:22.560Z,9.95
2022-11-12T15:18:18.996Z,9.75
2022-11-12T15:20:17.632Z,9.13
2022-11-12T15:22:19.618Z,8.18
2022-11-12T15:24:12.525Z,8.88
2022-11-12T15:26:03.083Z,8.98
2022-11-12T15:27:57.008Z,8.98
2022-11-12T15:29:47.077Z,11.43
2022-11-12T15:32:13.964Z,8.32
2022-11-12T15:34:31.925Z,12.07
2022-11-12T15:36:24.560Z,10.10
2022-11-12T15:38:19.508Z,12.55
2022-11-12T15:40:16.375Z,9.80
2022-11-12T15:42:15.796Z,9.20
2022-11-12T15:44:09.321Z,9.32
2022-11-12T15:45:59.938Z,8.48
2022-11-12T15:47:49.939Z,7.60
2022-11-12T15:50:23.228Z,8.98
2022-11-12T15:54:03.910Z,9.88
2022-11-12T15:55:54.117Z,9.25
2022-11-12T15:57:50.898Z,12.00
2022-11-12T15:59:41.694Z,11.88
2022-11-12T16:01:31.965Z,13.07
2022-11-12T16:03:22.595Z,11.93
2022-11-12T16:05:15.104Z,11.82
2022-11-12T16:07:07.008Z,11.20
2022-11-12T16:08:57.350Z,10.07
2022-11-12T16:10:48.303Z,11.57
2022-11-12T16:12:38.807Z,13.48
2022-11-12T16:14:28.814Z,10.48
2022-11-12T16:16:18.975Z,12.68
2022-11-12T16:18:11.787Z,12.07
2022-11-12T16:20:01.837Z,15.65
2022-11-12T16:21:52.057Z,11.73
2022-11-12T16:23:42.397Z,13.15
2022-11-12T16:25:35.574Z,11.20
2022-11-12T16:27:26.065Z,11.77
2022-11-12T16:29:16.619Z,12.02
2022-11-12T16:31:06.756Z,10.50
2022-11-12T16:32:58.177Z,12.35
2022-11-12T16:34:48.458Z,11.23
2022-11-12T16:36:41.681Z,13.25
2022-11-12T16:38:31.886Z,10.90
2022-11-12T16:40:25.432Z,13.10
2022-11-12T16:42:15.905Z,11.18
2022-11-12T16:44:07.385Z,14.43
2022-11-12T16:45:58.923Z,13.63
2022-11-12T16:47:54.858Z,10.25
2022-11-12T16:49:44.988Z,12.63
2022-11-12T16:51:35.499Z,11.45
2022-11-12T16:53:26.248Z,12.82
2022-11-12T16:55:16.873Z,11.95
2022-11-12T16:57:10.791Z,9.00
2022-11-12T16:59:01.057Z,12.13
2022-11-12T17:00:51.431Z,11.73
2022-11-12T17:02:45.335Z,12.43
2022-11-12T17:04:37.854Z,11.10
2022-11-12T17:06:39.742Z,15.35
2022-11-12T17:08:34.231Z,14.35
2022-11-12T17:10:27.609Z,16.60
2022-11-12T17:12:18.019Z,20.55
2022-11-12T17:14:08.387Z,18.27
2022-11-12T17:15:58.649Z,17.63
2022-11-12T17:17:48.707Z,17.75
2022-11-12T17:19:38.997Z,15.68
2022-11-12T17:21:29.561Z,12.55
2022-11-12T17:23:19.855Z,15.20
2022-11-12T17:25:10.298Z,16.73
2022-11-12T17:27:01.135Z,22.80
2022-11-12T17:28:59.220Z,22.20
2022-11-12T17:30:51.566Z,18.92
2022-11-12T17:32:41.887Z,20.77
2022-11-12T17:34:32.191Z,17.65
2022-11-12T17:36:25.463Z,21.95
2022-11-12T17:38:15.714Z,22.08
2022-11-12T17:40:06.586Z,21.60
2022-11-12T17:41:56.678Z,23.35
2022-11-12T17:43:47.364Z,18.00
2022-11-12T17:45:37.496Z,17.73
2022-11-12T17:47:28.324Z,19.67
2022-11-12T17:49:19.026Z,18.13
2022-11-12T17:51:12.904Z,19.02
2022-11-12T17:53:02.973Z,17.63
2022-11-12T17:54:53.361Z,17.08
2022-11-12T17:56:43.702Z,16.60
2022-11-12T17:58:33.791Z,18.08
2022-11-12T18:00:24.108Z,15.93
2022-11-12T18:02:14.347Z,16.95
2022-11-12T18:04:04.677Z,20.10
2022-11-12T18:05:59.524Z,17.92
2022-11-12T18:07:49.483Z,20.00
2022-11-12T18:09:39.770Z,15.75
2022-11-12T18:11:31.487Z,14.63
2022-11-12T18:13:21.825Z,12.27
2022-11-12T18:15:13.082Z,13.63
2022-11-12T18:17:03.333Z,13.20
2022-11-12T18:18:55.352Z,14.18
2022-11-12T18:20:45.737Z,16.25
2022-11-12T18:22:39.526Z,14.18
2022-11-12T18:24:33.982Z,12.75
2022-11-12T18:26:24.328Z,13.10
2022-11-12T18:28:14.774Z,12.75
2022-11-12T18:30:05.609Z,13.15
2022-11-12T18:31:55.580Z,18.00
2022-11-12T18:33:45.690Z,16.02
2022-11-12T18:35:36.023Z,13.82
2022-11-12T18:37:26.348Z,13.40
2022-11-12T18:39:16.594Z,16.88
2022-11-12T18:41:09.430Z,14.00
2022-11-12T18:42:59.541Z,14.90
2022-11-12T18:44:49.749Z,14.38
2022-11-12T18:46:39.912Z,14.80
2022-11-12T18:48:31.856Z,12.52
2022-11-12T18:50:22.170Z,12.68
2022-11-12T18:52:12.468Z,12.55
2022-11-12T18:54:03.153Z,14.23
2022-11-12T18:55:54.746Z,19.05
2022-11-12T18:57:45.145Z,15.55
2022-11-12T18:59:35.448Z,17.35
2022-11-12T19:01:25.839Z,15.48
2022-11-12T19:03:16.025Z,18.50
2022-11-12T19:05:06.541Z,21.42
2022-11-12T19:06:56.613Z,15.73
2022-11-12T19:08:46.735Z,17.10
2022-11-12T19:10:36.868Z,16.27
2022-11-12T19:12:27.178Z,12.25
2022-11-12T19:14:17.535Z,13.23
2022-11-12T19:16:11.794Z,13.13
2022-11-12T19:18:02.342Z,11.95
2022-11-12T19:19:52.684Z,15.20
2022-11-12T19:21:43.029Z,17.88
2022-11-12T19:23:33.793Z,14.40
2022-11-12T19:25:23.892Z,14.43
2022-11-12T19:27:14.222Z,13.25
2022-11-12T19:29:04.152Z,10.93
2022-11-12T19:30:54.544Z,11.43
2022-11-12T19:32:44.968Z,12.35
2022-11-12T19:34:35.321Z,11.77
2022-11-12T19:36:27.107Z,11.02
2022-11-12T19:38:17.299Z,11.35
2022-11-12T19:40:08.396Z,12.30
2022-11-12T19:41:58.355Z,12.25
2022-11-12T19:43:48.557Z,12.77
2022-11-12T19:45:38.885Z,12.07
2022-11-12T19:47:29.126Z,11.68
2022-11-12T19:49:19.207Z,11.80
2022-11-12T19:51:10.709Z,9.18
2022-11-12T19:53:00.702Z,11.43
2022-11-12T19:54:50.860Z,10.48
2022-11-12T19:56:41.127Z,11.18
2022-11-12T19:58:34.275Z,10.40
2022-11-12T20:00:24.505Z,10.18
2022-11-12T20:02:14.592Z,11.43
2022-11-12T20:04:05.075Z,9.88
2022-11-12T20:06:00.611Z,12.82
2022-11-12T20:07:51.200Z,15.35
2022-11-12T20:09:41.206Z,13.93
2022-11-12T20:11:31.364Z,16.55
2022-11-12T20:13:21.498Z,12.20
2022-11-12T20:15:11.944Z,12.98
2022-11-12T20:17:02.374Z,14.52
2022-11-12T20:18:55.466Z,13.63
2022-11-12T20:20:51.308Z,17.73
2022-11-12T20:22:41.362Z,20.02
2022-11-12T20:24:31.757Z,26.17
2022-11-12T20:26:21.836Z,18.25
2022-11-12T20:28:12.601Z,21.48
2022-11-12T20:30:02.961Z,24.00
2022-11-12T20:31:52.908Z,17.60
2022-11-12T20:33:43.228Z,20.10
2022-11-12T20:35:37.205Z,18.15
2022-11-12T20:37:29.570Z,14.35
2022-11-12T20:39:19.753Z,18.55
2022-11-12T20:41:17.330Z,18.77
2022-11-12T20:43:07.410Z,23.00
2022-11-12T20:44:57.589Z,21.15
2022-11-12T20:46:47.647Z,17.08
2022-11-12T20:48:42.844Z,20.85
2022-11-12T20:50:33.784Z,18.02
2022-11-12T20:52:24.011Z,17.52
2022-11-12T20:54:14.645Z,20.85
2022-11-12T20:56:16.610Z,17.90
2022-11-12T20:58:06.845Z,21.65
2022-11-12T20:59:57.007Z,19.15
2022-11-12T21:01:47.502Z,17.25
2022-11-12T21:03:39.642Z,16.17
2022-11-12T21:05:30.105Z,18.73
2022-11-12T21:07:20.890Z,15.02
2022-11-12T21:09:11.723Z,17.40
2022-11-12T21:11:04.546Z,15.05
2022-11-12T21:12:54.815Z,18.65
2022-11-12T21:14:50.067Z,14.00
2022-11-12T21:16:40.614Z,17.08
2022-11-12T21:18:32.110Z,16.75
2022-11-12T21:20:22.155Z,17.63
2022-11-12T21:22:14.735Z,16.67
2022-11-12T21:24:05.467Z,18.92
2022-11-12T21:25:55.779Z,17.45
2022-11-12T21:27:46.189Z,16.20
2022-11-12T21:29:36.466Z,13.75
2022-11-12T21:31:29.603Z,13.55
2022-11-12T21:33:20.821Z,15.20
2022-11-12T21:35:11.201Z,25.15
2022-11-12T21:37:01.472Z,16.38
2022-11-12T21:38:51.827Z,11.57
2022-11-12T21:40:42.139Z,13.90
2022-11-12T21:42:32.080Z,13.30
2022-11-12T21:44:22.493Z,10.00
2022-11-12T21:46:32.340Z,16.77
2022-11-12T21:48:22.338Z,11.65
2022-11-12T21:50:12.404Z,15.43
2022-11-12T21:52:02.576Z,10.80
2022-11-12T21:53:57.878Z,15.50
2022-11-12T21:55:49.573Z,9.77
2022-11-12T21:57:40.022Z,10.40
2022-11-12T21:59:30.484Z,16.05
2022-11-12T22:01:24.947Z,9.43
2022-11-12T22:03:15.172Z,18.40
2022-11-12T22:05:05.637Z,17.13
2022-11-12T22:06:55.733Z,14.75
2022-11-12T22:08:46.490Z,15.73
2022-11-12T22:10:36.767Z,22.10
2022-11-12T22:12:27.431Z,16.67
2022-11-12T22:14:17.816Z,19.25
2022-11-12T22:16:19.242Z,15.68
2022-11-12T22:18:09.300Z,21.33
2022-11-12T22:19:59.718Z,14.23
2022-11-12T22:21:50.167Z,12.88
2022-11-12T22:23:40.768Z,14.52
2022-11-12T22:25:30.676Z,23.13
2022-11-12T22:27:21.044Z,37.72
2022-11-12T22:29:11.382Z,22.55
2022-11-12T22:31:28.941Z,20.58
2022-11-12T22:33:19.153Z,18.75
2022-11-12T22:35:09.722Z,13.60
2022-11-12T22:36:59.865Z,20.58
2022-11-12T22:38:51.785Z,22.92
2022-11-12T22:40:42.086Z,16.50
2022-11-12T22:42:32.399Z,21.48
2022-11-12T22:44:22.693Z,14.38
2022-11-12T22:46:15.326Z,18.33
2022-11-12T22:48:06.051Z,13.25
2022-11-12T22:49:56.409Z,16.67
2022-11-12T22:51:46.538Z,25.92
2022-11-12T22:53:36.912Z,30.80
2022-11-12T22:55:27.433Z,20.30
2022-11-12T22:57:17.626Z,19.88
2022-11-12T22:59:10.587Z,16.13
2022-11-12T23:01:00.827Z,15.77
2022-11-12T23:02:50.961Z,25.17
2022-11-12T23:04:40.947Z,17.60
2022-11-12T23:06:32.047Z,23.63
2022-11-12T23:08:22.085Z,13.57
2022-11-12T23:10:12.178Z,12.88
2022-11-12T23:12:02.550Z,18.08
2022-11-12T23:13:53.897Z,17.23
2022-11-12T23:15:45.412Z,16.45
2022-11-12T23:17:35.506Z,10.73
2022-11-12T23:19:25.788Z,13.73
2022-11-12T23:21:19.402Z,17.27
2022-11-12T23:23:09.437Z,13.18
2022-11-12T23:24:59.846Z,11.55
2022-11-12T23:26:50.124Z,12.93
2022-11-12T23:28:40.675Z,12.57
2022-11-12T23:30:30.538Z,13.52
2022-11-12T23:32:20.589Z,19.42
2022-11-12T23:34:12.944Z,14.02
2022-11-12T23:36:04.971Z,20.40
2022-11-12T23:37:55.137Z,10.35
2022-11-12T23:39:45.353Z,9.95
2022-11-12T23:41:35.484Z,14.93
2022-11-12T23:43:25.808Z,12.30
2022-11-12T23:45:15.999Z,15.18
2022-11-12T23:47:06.070Z,10.95
2022-11-12T23:48:56.284Z,14.65
2022-11-12T23:50:47.976Z,10.40
2022-11-12T23:52:38.004Z,14.40
2022-11-12T23:54:28.231Z,9.32
2022-11-12T23:56:19.756Z,9.23
2022-11-12T23:58:10.628Z,9.23
